Time;durP1;ratioP1;P1;durP2;ratioP2;P2;SDS_P1;SDS_P2;PMS_P1;PMS_P2;Temp;Humidity;BMP_temperature;BMP_pressure;BME280_temperature;BME280_humidity;BME280_pressure;Samples;Min_cycle;Max_cycle;Signal;HPM_P1;HPM_P2
2020/12/13 00:00:32;;;;;;;21.05;10.88;;;;;;;1.13;69.44;100567.77;1742349;81;21196;-59
2020/12/13 00:03:00;;;;;;;18.45;9.55;;;;;;;1.11;69.47;100563.94;1746088;80;21187;-59
2020/12/13 00:05:30;;;;;;;19.67;11.88;;;;;;;1.14;69.47;100562.13;1701463;82;21136;-59
2020/12/13 00:07:57;;;;;;;21.90;11.18;;;;;;;1.13;69.49;100567.77;1745308;81;21204;-59
2020/12/13 00:10:26;;;;;;;26.05;12.68;;;;;;;1.18;69.45;100568.44;1733230;80;21224;-59
2020/12/13 00:12:54;;;;;;;24.20;11.97;;;;;;;1.27;69.33;100566.78;1740448;81;21227;-59
2020/12/13 00:15:21;;;;;;;21.12;10.45;;;;;;;1.34;69.36;100567.39;1704356;83;21178;-59
2020/12/13 00:17:49;;;;;;;20.08;10.93;;;;;;;1.35;69.33;100571.68;1744143;81;21187;-59
2020/12/13 00:20:16;;;;;;;21.48;11.50;;;;;;;1.28;69.39;100573.66;1740866;81;21219;-59
2020/12/13 00:22:45;;;;;;;19.50;9.65;;;;;;;1.22;69.58;100576.94;1744087;80;21247;-59
2020/12/13 00:25:12;;;;;;;17.50;9.48;;;;;;;1.19;69.68;100584.37;1743037;81;21191;-58
2020/12/13 00:27:40;;;;;;;23.70;10.95;;;;;;;1.23;69.60;100585.13;1743899;82;21164;-59
2020/12/13 00:30:08;;;;;;;17.82;9.65;;;;;;;1.20;69.64;100584.77;1743121;81;21183;-59
2020/12/13 00:32:35;;;;;;;19.67;11.25;;;;;;;1.22;69.59;100582.96;1742938;80;21196;-59
2020/12/13 00:35:03;;;;;;;16.82;11.05;;;;;;;1.20;69.64;100579.59;1745957;81;21300;-59
2020/12/13 00:37:31;;;;;;;28.60;11.78;;;;;;;1.21;69.63;100574.81;1743846;81;21223;-59
2020/12/13 00:39:58;;;;;;;30.05;10.70;;;;;;;1.20;69.76;100583.48;1739864;81;21155;-59
2020/12/13 00:42:26;;;;;;;20.12;10.78;;;;;;;1.27;69.75;100578.45;1715226;81;21208;-59
2020/12/13 00:44:54;;;;;;;19.62;10.35;;;;;;;1.35;69.65;100577.33;1742075;81;21375;-59
2020/12/13 00:47:22;;;;;;;13.65;8.85;;;;;;;1.38;69.79;100573.30;1744729;81;22117;-59
2020/12/13 00:49:49;;;;;;;18.02;9.98;;;;;;;1.36;69.88;100578.56;1737373;82;21736;-59
2020/12/13 00:52:16;;;;;;;19.15;10.10;;;;;;;1.34;69.97;100569.98;1741386;81;21203;-59
2020/12/13 00:54:44;;;;;;;19.73;10.75;;;;;;;1.33;70.07;100568.74;1706279;82;21166;-59
2020/12/13 00:57:12;;;;;;;20.32;10.13;;;;;;;1.30;70.11;100565.83;1744343;80;21215;-59
2020/12/13 00:59:40;;;;;;;17.92;11.05;;;;;;;1.34;70.16;100567.84;1744929;82;23629;-59
2020/12/13 01:02:07;;;;;;;18.87;10.18;;;;;;;1.32;70.06;100564.02;1739315;81;21152;-59
2020/12/13 01:04:35;;;;;;;13.80;9.25;;;;;;;1.33;70.09;100563.55;1735406;81;21180;-59
2020/12/13 01:07:05;;;;;;;17.60;10.00;;;;;;;1.32;70.07;100554.94;1735617;82;21208;-59
2020/12/13 01:09:33;;;;;;;16.42;9.95;;;;;;;1.32;70.05;100548.92;1739591;81;21205;-59
2020/12/13 01:12:00;;;;;;;16.73;9.35;;;;;;;1.24;70.28;100559.11;1740081;81;21195;-59
2020/12/13 01:14:28;;;;;;;15.40;9.05;;;;;;;1.28;70.33;100555.52;1737575;80;21176;-59
2020/12/13 01:16:56;;;;;;;16.85;8.43;;;;;;;1.38;70.05;100553.42;1738080;81;21148;-59
2020/12/13 01:19:24;;;;;;;18.10;9.65;;;;;;;1.44;70.10;100552.32;1731242;81;21190;-59
2020/12/13 01:21:51;;;;;;;16.30;8.73;;;;;;;1.43;70.13;100557.97;1731103;80;21191;-59
2020/12/13 01:24:19;;;;;;;16.80;8.85;;;;;;;1.41;70.27;100548.12;1741668;82;23552;-59
2020/12/13 01:26:46;;;;;;;17.10;9.13;;;;;;;1.40;70.28;100541.23;1737127;81;21180;-59
2020/12/13 01:29:14;;;;;;;12.98;8.68;;;;;;;1.35;70.37;100541.03;1739332;81;21371;-59
2020/12/13 01:31:41;;;;;;;15.13;8.93;;;;;;;1.30;70.46;100540.73;1733742;81;21154;-59
2020/12/13 01:34:09;;;;;;;13.60;8.33;;;;;;;1.25;70.45;100540.08;1731399;81;21211;-59
2020/12/13 01:36:36;;;;;;;16.90;8.65;;;;;;;1.22;70.55;100542.78;1731289;82;21199;-59
2020/12/13 01:39:04;;;;;;;17.52;8.80;;;;;;;1.23;70.61;100535.41;1737048;80;22117;-59
2020/12/13 01:41:32;;;;;;;17.20;8.05;;;;;;;1.22;70.55;100533.71;1724516;81;21120;-59
2020/12/13 01:44:04;;;;;;;11.95;7.55;;;;;;;1.22;70.60;100535.47;1739449;81;21175;-59
2020/12/13 01:46:34;;;;;;;14.00;8.03;;;;;;;1.24;70.62;100532.36;1740503;81;21188;-59
2020/12/13 01:49:06;;;;;;;16.05;8.50;;;;;;;1.24;70.71;100531.89;1737140;81;21381;-59
2020/12/13 01:52:03;;;;;;;;;;;;;;;;;;;;;
2020/12/13 01:54:22;;;;;;;11.38;7.25;;;;;;;1.53;70.39;100535.11;1828988;77;21869;-59
2020/12/13 01:56:57;;;;;;;16.73;8.95;;;;;;;1.54;70.27;100537.25;1748666;80;20978;-58
2020/12/13 01:59:26;;;;;;;14.53;8.03;;;;;;;1.53;70.37;100533.81;1761804;80;22327;-58
2020/12/13 02:02:00;;;;;;;15.83;9.00;;;;;;;1.49;70.61;100528.34;1747088;80;21642;-58
2020/12/13 02:04:28;;;;;;;17.27;8.40;;;;;;;1.50;70.73;100532.64;1752953;80;21211;-58
2020/12/13 02:06:56;;;;;;;21.60;8.43;;;;;;;1.46;70.74;100536.24;1763086;79;21656;-58
2020/12/13 02:09:27;;;;;;;14.63;9.25;;;;;;;1.48;70.74;100533.16;1772970;79;21195;-59
2020/12/13 02:11:54;;;;;;;17.87;10.05;;;;;;;1.48;70.78;100534.45;1773294;80;22128;-58
2020/12/13 02:14:21;;;;;;;19.65;8.98;;;;;;;1.52;70.89;100531.28;1777709;79;21117;-58
2020/12/13 02:16:53;;;;;;;12.93;8.30;;;;;;;1.60;70.77;100531.83;1775872;79;21613;-58
2020/12/13 02:19:21;;;;;;;14.05;8.65;;;;;;;1.67;70.68;100531.95;1744429;80;21182;-58
2020/12/13 02:21:50;;;;;;;14.85;8.63;;;;;;;1.73;70.66;100530.84;1761198;80;21205;-58
2020/12/13 02:24:19;;;;;;;14.85;8.23;;;;;;;1.73;70.67;100527.83;1746302;80;21364;-58
2020/12/13 02:26:48;;;;;;;18.92;9.28;;;;;;;1.75;70.75;100529.03;1757074;80;21208;-58
2020/12/13 02:29:16;;;;;;;16.55;9.75;;;;;;;1.70;70.85;100527.95;1756051;80;21188;-58
2020/12/13 02:31:43;;;;;;;15.48;9.08;;;;;;;1.60;70.96;100525.34;1758736;80;21144;-58
2020/12/13 02:34:11;;;;;;;17.40;8.78;;;;;;;1.55;71.08;100525.98;1718319;82;21506;-58
2020/12/13 02:36:39;;;;;;;16.30;9.23;;;;;;;1.60;71.11;100533.95;1714089;82;23662;-58
2020/12/13 02:39:07;;;;;;;13.55;8.08;;;;;;;1.68;71.03;100540.11;1721074;82;21156;-59
2020/12/13 02:41:35;;;;;;;15.68;8.48;;;;;;;1.70;71.06;100534.43;1719498;81;21183;-58
2020/12/13 02:44:02;;;;;;;16.57;8.10;;;;;;;1.69;71.16;100542.27;1712655;81;21186;-59
2020/12/13 02:46:30;;;;;;;12.82;8.08;;;;;;;1.67;71.29;100534.55;1733270;81;21224;-59
2020/12/13 02:48:57;;;;;;;16.27;8.85;;;;;;;1.68;71.27;100547.89;1728098;82;21414;-58
2020/12/13 02:51:25;;;;;;;14.78;8.93;;;;;;;1.65;71.27;100538.97;1733653;81;21654;-58
2020/12/13 02:53:52;;;;;;;15.98;9.38;;;;;;;1.64;71.24;100538.09;1696306;81;21173;-58
2020/12/13 02:56:20;;;;;;;14.15;7.40;;;;;;;1.74;71.07;100545.06;1756106;81;21621;-58
2020/12/13 02:58:48;;;;;;;14.18;7.75;;;;;;;1.83;70.93;100543.83;1758264;80;21184;-58
2020/12/13 03:01:15;;;;;;;17.98;8.13;;;;;;;1.88;70.94;100544.48;1753978;81;21432;-58
2020/12/13 03:03:43;;;;;;;16.00;8.85;;;;;;;1.91;70.92;100550.02;1753552;80;21165;-58
2020/12/13 03:06:11;;;;;;;14.60;8.45;;;;;;;1.94;70.89;100549.43;1749172;80;21119;-58
2020/12/13 03:08:39;;;;;;;12.18;8.28;;;;;;;1.95;70.86;100545.08;1757235;80;21203;-58
2020/12/13 03:11:07;;;;;;;13.53;8.75;;;;;;;1.92;70.93;100542.17;1754231;79;21204;-58
2020/12/13 03:13:35;;;;;;;17.75;8.80;;;;;;;1.90;70.91;100542.70;1755516;80;21284;-58
2020/12/13 03:16:02;;;;;;;15.55;7.30;;;;;;;1.94;71.00;100539.52;1745009;79;21169;-58
2020/12/13 03:18:30;;;;;;;12.18;7.05;;;;;;;1.96;71.00;100530.73;1753552;80;21165;-58
2020/12/13 03:20:57;;;;;;;14.00;7.95;;;;;;;2.02;70.86;100527.06;1688665;83;21236;-58
2020/12/13 03:23:25;;;;;;;15.68;7.12;;;;;;;2.07;70.78;100519.92;1757602;80;21164;-58
2020/12/13 03:25:52;;;;;;;13.78;7.87;;;;;;;2.06;70.84;100514.80;1753903;81;21901;-59
2020/12/13 03:28:20;;;;;;;16.10;8.68;;;;;;;2.01;71.04;100513.69;1747924;80;21195;-58
2020/12/13 03:30:47;;;;;;;15.18;8.18;;;;;;;1.94;71.27;100517.45;1743016;80;21144;-58
2020/12/13 03:33:15;;;;;;;13.28;6.90;;;;;;;1.89;71.52;100499.48;1754630;79;21178;-58
2020/12/13 03:35:43;;;;;;;11.28;7.08;;;;;;;1.83;71.61;100509.67;1760157;80;21609;-59
2020/12/13 03:38:11;;;;;;;12.73;7.15;;;;;;;1.84;71.75;100507.91;1758988;79;22060;-59
2020/12/13 03:40:39;;;;;;;13.62;6.65;;;;;;;1.95;71.62;100508.74;1757923;80;21149;-59
2020/12/13 03:43:07;;;;;;;11.50;5.60;;;;;;;2.06;71.57;100513.50;1762892;79;21173;-59
2020/12/13 03:45:34;;;;;;;9.85;6.15;;;;;;;2.12;71.43;100513.22;1755013;80;21392;-59
2020/12/13 03:48:02;;;;;;;11.97;6.33;;;;;;;2.16;71.44;100521.28;1758005;80;21141;-59
2020/12/13 03:50:38;;;;;;;10.18;5.83;;;;;;;2.19;71.37;100524.58;1728915;80;21927;-59
2020/12/13 03:52:59;;;;;;;10.98;6.20;;;;;;;2.22;71.39;100526.22;1752700;79;22237;-59
2020/12/13 03:55:26;;;;;;;12.15;7.42;;;;;;;2.26;71.37;100526.45;1762477;81;21187;-59
2020/12/13 03:57:53;;;;;;;12.30;6.42;;;;;;;2.28;71.30;100531.59;1756140;80;21171;-59
2020/12/13 04:00:21;;;;;;;12.82;7.28;;;;;;;2.32;71.18;100529.23;1750895;81;21153;-59
2020/12/13 04:02:49;;;;;;;12.20;6.35;;;;;;;2.41;70.98;100528.39;1748750;79;21228;-59
2020/12/13 04:05:17;;;;;;;9.95;5.65;;;;;;;2.53;70.76;100530.90;1759445;80;21208;-59
2020/12/13 04:07:44;;;;;;;10.65;5.87;;;;;;;2.64;70.69;100530.44;1755711;79;21566;-59
2020/12/13 04:10:12;;;;;;;11.12;6.67;;;;;;;2.71;70.51;100530.55;1746424;80;21189;-59
2020/12/13 04:12:40;;;;;;;15.40;7.67;;;;;;;2.73;70.58;100526.11;1746209;80;21396;-59
2020/12/13 04:15:07;;;;;;;17.75;7.78;;;;;;;2.77;70.51;100530.28;1751474;80;21303;-59
2020/12/13 04:17:35;;;;;;;13.10;7.08;;;;;;;2.78;70.44;100531.94;1754225;79;22259;-59
2020/12/13 04:20:05;;;;;;;16.15;8.78;;;;;;;2.74;70.45;100521.31;1747803;81;21613;-59
2020/12/13 04:22:32;;;;;;;15.48;7.72;;;;;;;2.68;70.48;100526.78;1756192;79;21148;-59
2020/12/13 04:25:00;;;;;;;13.72;7.75;;;;;;;2.62;70.66;100530.94;1751767;79;21145;-59
2020/12/13 04:27:27;;;;;;;16.95;9.53;;;;;;;2.60;70.75;100534.06;1753175;81;23536;-60
2020/12/13 04:29:55;;;;;;;17.32;9.45;;;;;;;2.65;70.74;100529.51;1756049;80;21143;-59
2020/12/13 04:32:22;;;;;;;18.92;9.23;;;;;;;2.77;70.58;100538.50;1754156;80;21217;-59
2020/12/13 04:34:51;;;;;;;15.78;8.85;;;;;;;2.82;70.50;100534.41;1760350;80;21213;-59
2020/12/13 04:37:18;;;;;;;19.05;10.72;;;;;;;2.85;70.46;100536.88;1702933;82;21216;-59
2020/12/13 04:39:46;;;;;;;19.50;10.48;;;;;;;2.82;70.60;100539.14;1747312;80;21275;-60
2020/12/13 04:42:13;;;;;;;17.92;9.63;;;;;;;2.82;70.60;100535.70;1751811;80;21946;-60
2020/12/13 04:44:41;;;;;;;18.62;10.70;;;;;;;2.79;70.67;100537.54;1762821;80;21177;-60
2020/12/13 04:47:09;;;;;;;24.70;12.47;;;;;;;2.78;70.65;100535.01;1749726;80;21130;-59
2020/12/13 04:49:37;;;;;;;25.48;12.73;;;;;;;2.76;70.70;100532.47;1762441;80;21197;-60
2020/12/13 04:52:05;;;;;;;20.30;12.18;;;;;;;2.75;70.80;100535.14;1694261;82;21230;-60
2020/12/13 04:54:33;;;;;;;25.62;13.20;;;;;;;2.74;70.90;100542.53;1759382;81;21657;-60
2020/12/13 04:57:00;;;;;;;21.12;13.40;;;;;;;2.83;70.70;100537.41;1747674;80;21180;-59
2020/12/13 04:59:28;;;;;;;21.55;13.00;;;;;;;2.91;70.53;100536.61;1699897;82;21233;-60
2020/12/13 05:01:56;;;;;;;23.92;12.85;;;;;;;2.98;70.50;100532.80;1758212;79;21184;-59
2020/12/13 05:04:24;;;;;;;20.92;11.93;;;;;;;3.03;70.43;100538.63;1758718;79;21269;-59
2020/12/13 05:06:51;;;;;;;25.60;13.60;;;;;;;3.04;70.46;100536.86;1697994;82;21190;-59
2020/12/13 05:09:19;;;;;;;21.68;13.08;;;;;;;3.01;70.46;100533.97;1755392;79;21208;-59
2020/12/13 05:11:47;;;;;;;26.42;15.05;;;;;;;2.96;70.57;100541.97;1702148;82;21186;-59
2020/12/13 05:14:14;;;;;;;30.20;14.95;;;;;;;2.94;70.71;100540.34;1756612;79;21455;-59
2020/12/13 05:16:42;;;;;;;33.13;16.40;;;;;;;2.90;70.73;100528.41;1765808;79;21482;-59
2020/12/13 05:19:10;;;;;;;24.45;15.65;;;;;;;2.85;70.84;100528.61;1761859;79;21165;-59
2020/12/13 05:21:38;;;;;;;25.30;14.10;;;;;;;2.86;70.94;100533.34;1764136;80;21165;-59
2020/12/13 05:24:06;;;;;;;24.67;12.23;;;;;;;2.89;70.83;100530.61;1698297;82;21244;-59
2020/12/13 05:26:33;;;;;;;27.60;13.88;;;;;;;3.00;70.68;100528.83;1755137;79;21759;-59
2020/12/13 05:29:04;;;;;;;24.45;14.50;;;;;;;3.09;70.58;100525.36;1752628;79;21204;-59
2020/12/13 05:31:33;;;;;;;23.02;14.23;;;;;;;3.18;70.51;100525.81;1728839;81;21648;-59
2020/12/13 05:34:03;;;;;;;24.92;13.62;;;;;;;3.18;70.59;100522.78;1749826;79;21253;-59
2020/12/13 05:36:33;;;;;;;30.27;13.40;;;;;;;3.23;70.57;100529.04;1751735;79;21234;-59
2020/12/13 05:38:59;;;;;;;25.30;15.40;;;;;;;3.22;70.40;100532.11;1754607;79;21204;-59
2020/12/13 05:41:37;;;;;;;25.85;14.45;;;;;;;3.15;70.39;100530.25;1722291;81;21232;-59
2020/12/13 05:44:40;;;;;;;21.40;12.95;;;;;;;3.08;70.45;100529.33;1756690;79;21212;-59
2020/12/13 05:49:43;;;;;;;22.50;12.25;;;;;;;2.93;70.79;100542.57;1717475;81;21227;-59
2020/12/13 05:51:54;;;;;;;25.70;10.68;;;;;;;2.93;70.79;100539.50;1749964;80;21604;-59
2020/12/13 05:54:25;;;;;;;19.37;10.88;;;;;;;3.01;70.63;100543.06;1727069;80;21611;-60
2020/12/13 05:56:59;;;;;;;22.32;11.25;;;;;;;3.07;70.58;100542.76;1760507;79;21208;-59
2020/12/13 05:59:30;;;;;;;23.02;12.30;;;;;;;3.11;70.60;100539.56;1737771;79;21648;-59
2020/12/13 06:02:00;;;;;;;22.52;10.45;;;;;;;3.11;70.63;100539.56;1753268;81;21261;-59
2020/12/13 06:04:29;;;;;;;23.75;11.63;;;;;;;3.10;70.70;100541.33;1759561;79;21221;-59
2020/12/13 06:07:00;;;;;;;21.17;11.55;;;;;;;3.06;70.72;100541.09;1754406;79;21364;-57
2020/12/13 06:09:40;;;;;;;23.45;11.78;;;;;;;3.01;70.84;100535.70;1753994;79;21188;-58
2020/12/13 06:12:12;;;;;;;23.47;11.10;;;;;;;2.96;70.97;100535.94;1749815;81;21225;-58
2020/12/13 06:14:41;;;;;;;21.02;12.65;;;;;;;2.91;71.05;100537.91;1753193;79;21233;-58
2020/12/13 06:17:08;;;;;;;23.35;11.30;;;;;;;2.87;71.23;100542.84;1755530;79;21664;-58
2020/12/13 06:19:40;;;;;;;21.97;11.93;;;;;;;2.92;71.27;100542.17;1745471;79;22345;-59
2020/12/13 06:22:13;;;;;;;22.82;12.07;;;;;;;3.04;71.04;100549.86;1729280;81;21190;-59
2020/12/13 06:24:51;;;;;;;25.43;12.25;;;;;;;3.15;70.92;100544.55;1767070;78;22873;-58
2020/12/13 06:27:24;;;;;;;27.10;13.32;;;;;;;3.16;70.78;100538.88;1738616;80;21521;-58
2020/12/13 06:29:51;;;;;;;26.30;14.35;;;;;;;3.13;70.87;100534.69;1746832;80;21230;-59
2020/12/13 06:32:19;;;;;;;25.80;12.53;;;;;;;3.12;70.97;100532.98;1673444;82;21115;-59
2020/12/13 06:34:48;;;;;;;32.35;15.18;;;;;;;3.12;71.01;100542.55;1679721;84;21116;-58
2020/12/13 06:37:15;;;;;;;23.18;13.70;;;;;;;3.10;71.11;100542.63;1683095;83;21136;-58
2020/12/13 06:39:44;;;;;;;28.05;14.98;;;;;;;3.08;71.08;100539.26;1661766;83;21640;-58
2020/12/13 06:42:14;;;;;;;27.62;15.95;;;;;;;3.03;71.22;100542.53;1687348;82;22320;-59
2020/12/13 06:44:43;;;;;;;28.90;14.80;;;;;;;2.99;71.28;100544.87;1621600;84;21183;-58
2020/12/13 06:47:25;;;;;;;30.72;14.95;;;;;;;3.04;71.24;100536.86;1682081;84;21281;-58
2020/12/13 06:49:56;;;;;;;25.65;13.75;;;;;;;3.13;71.16;100539.89;1684588;82;21170;-58
2020/12/13 06:52:34;;;;;;;28.47;14.83;;;;;;;3.25;71.01;100540.23;1683513;84;21159;-58
2020/12/13 06:55:06;;;;;;;33.08;16.00;;;;;;;3.34;70.85;100541.09;1683011;83;21628;-58
2020/12/13 06:57:37;;;;;;;29.95;15.58;;;;;;;3.41;70.75;100543.77;1682301;82;21826;-58
2020/12/13 07:00:09;;;;;;;31.40;16.07;;;;;;;3.41;70.66;100543.77;1681682;82;22301;-58
2020/12/13 07:02:56;;;;;;;33.83;17.45;;;;;;;3.37;70.67;100544.84;1683164;82;21483;-58
2020/12/13 07:05:54;;;;;;;27.05;18.15;;;;;;;3.32;70.76;100547.66;1681535;84;21570;-59
2020/12/13 07:08:23;;;;;;;32.00;18.70;;;;;;;3.27;70.86;100553.53;1683566;83;21346;-57
2020/12/13 07:10:54;;;;;;;34.10;18.52;;;;;;;3.21;70.97;100558.18;1687470;82;21270;-58
2020/12/13 07:13:29;;;;;;;33.38;18.12;;;;;;;3.15;71.06;100556.25;1697002;82;21631;-58
2020/12/13 07:18:49;;;;;;;37.65;15.80;;;;;;;3.14;71.17;100549.39;1761440;78;22863;-59
2020/12/13 07:21:18;;;;;;;35.70;15.78;;;;;;;3.21;71.00;100549.08;1722262;81;21603;-59
2020/12/13 07:23:47;;;;;;;30.25;16.35;;;;;;;3.27;70.91;100547.50;1727545;82;21227;-58
2020/12/13 07:26:17;;;;;;;39.35;18.75;;;;;;;3.29;70.85;100544.36;1724101;82;21140;-58
2020/12/13 07:28:47;;;;;;;31.50;17.15;;;;;;;3.28;71.06;100548.73;1733661;82;21256;-57
2020/12/13 07:31:14;;;;;;;32.80;17.85;;;;;;;3.27;71.09;100550.10;1720858;81;21750;-57
2020/12/13 07:33:42;;;;;;;37.03;16.07;;;;;;;3.27;71.11;100554.00;1683390;83;21132;-58
2020/12/13 07:37:18;;;;;;;36.33;18.45;;;;;;;3.26;71.13;100556.20;1873152;76;22532;-59
2020/12/13 07:39:47;;;;;;;25.43;16.02;;;;;;;3.20;71.19;100568.22;1847186;77;21064;-58
2020/12/13 07:42:17;;;;;;;32.53;16.60;;;;;;;3.16;71.19;100570.95;1777483;79;21215;-58
2020/12/13 07:44:46;;;;;;;26.23;14.83;;;;;;;3.21;71.20;100573.78;1781498;79;21129;-58
2020/12/13 07:47:22;;;;;;;32.58;16.65;;;;;;;3.32;70.91;100568.47;1785017;78;21132;-59
2020/12/13 07:49:49;;;;;;;27.90;15.15;;;;;;;3.39;70.77;100574.69;1782469;78;21201;-59
2020/12/13 07:52:17;;;;;;;31.55;16.25;;;;;;;3.40;70.75;100571.19;1773783;78;21087;-59
2020/12/13 07:54:46;;;;;;;32.30;16.97;;;;;;;3.38;70.84;100568.66;1792158;79;22469;-58
2020/12/13 07:57:17;;;;;;;32.40;16.07;;;;;;;3.37;70.94;100570.03;1773303;78;21005;-58
2020/12/13 07:59:46;;;;;;;27.10;14.68;;;;;;;3.37;70.88;100567.42;1799402;77;21093;-58
2020/12/13 08:02:13;;;;;;;38.73;18.62;;;;;;;3.32;70.89;100572.37;1805587;78;21121;-57
2020/12/13 08:07:21;;;;;;;;;;;;;;;3.23;71.14;100562.41;1793519;78;22036;-58
2020/12/13 08:09:58;;;;;;;26.05;14.90;;;;;;;3.18;71.17;100578.69;1762818;80;20538;-58
2020/12/13 08:12:38;;;;;;;23.83;15.03;;;;;;;3.03;71.42;100568.99;1759165;80;22523;-58
2020/12/13 08:15:06;;;;;;;26.33;15.55;;;;;;;3.07;71.48;100576.56;1762549;80;21187;-58
2020/12/13 08:17:35;;;;;;;26.93;12.95;;;;;;;3.20;71.32;100573.41;1764904;80;21643;-58
2020/12/13 08:20:07;;;;;;;27.35;14.75;;;;;;;3.30;71.14;100579.87;1758198;80;21624;-59
2020/12/13 08:22:36;;;;;;;31.42;15.28;;;;;;;3.33;71.13;100580.57;1758198;80;21147;-58
2020/12/13 08:25:06;;;;;;;28.20;15.00;;;;;;;3.34;71.10;100580.10;1763721;80;21198;-58
2020/12/13 08:30:18;;;;;;;24.07;13.88;;;;;;;3.37;71.11;100578.66;1794407;79;22746;-59
2020/12/13 08:32:47;;;;;;;22.58;13.83;;;;;;;3.31;71.05;100576.34;1749987;80;21131;-58
2020/12/13 08:35:20;;;;;;;21.05;15.13;;;;;;;3.26;71.19;100568.77;1751913;80;21204;-58
2020/12/13 08:37:59;;;;;;;21.30;12.13;;;;;;;3.29;71.25;100567.77;1747785;81;21182;-58
2020/12/13 08:40:46;;;;;;;31.27;17.23;;;;;;;3.37;71.10;100564.36;1780904;77;27597;-58
2020/12/13 08:43:18;;;;;;;28.25;15.15;;;;;;;3.57;70.67;100567.78;1772340;80;21568;-58
2020/12/13 08:45:55;;;;;;;23.25;12.98;;;;;;;3.80;70.07;100567.52;1772568;78;21218;-58
2020/12/13 08:48:28;;;;;;;24.05;12.28;;;;;;;3.76;69.97;100565.95;1772222;78;21168;-59
2020/12/13 08:51:07;;;;;;;22.50;12.80;;;;;;;3.68;70.02;100561.14;1771525;78;21682;-59
2020/12/13 08:53:35;;;;;;;22.73;12.68;;;;;;;3.61;70.12;100556.30;1772151;80;22062;-59
2020/12/13 08:56:13;;;;;;;23.90;12.73;;;;;;;3.50;70.26;100561.56;1771978;78;21536;-58
2020/12/13 08:59:00;;;;;;;20.60;10.25;;;;;;;3.42;70.45;100562.84;1771085;78;21204;-58
2020/12/13 09:01:39;;;;;;;20.10;10.05;;;;;;;3.42;70.53;100551.97;1772072;78;21528;-58
2020/12/13 09:04:28;;;;;;;20.35;11.63;;;;;;;3.50;70.37;100549.85;1796501;78;21135;-58
2020/12/13 09:07:00;;;;;;;19.80;11.70;;;;;;;3.55;70.27;100557.45;1724903;81;21191;-58
2020/12/13 09:09:34;;;;;;;24.70;13.62;;;;;;;3.54;70.25;100544.04;1737345;80;21695;-58
2020/12/13 09:12:20;;;;;;;21.27;13.53;;;;;;;3.52;70.46;100538.08;1737517;81;21263;-58
2020/12/13 09:14:48;;;;;;;25.62;13.22;;;;;;;3.52;70.40;100539.38;1734812;81;21148;-58
2020/12/13 09:17:23;;;;;;;26.00;14.90;;;;;;;3.50;70.48;100543.34;1735864;80;21191;-59
2020/12/13 09:19:53;;;;;;;30.60;15.95;;;;;;;3.50;70.48;100543.81;1736973;80;21128;-59
2020/12/13 09:22:24;;;;;;;26.73;15.90;;;;;;;3.47;70.43;100538.28;1736787;80;21207;-58
2020/12/13 09:24:54;;;;;;;24.25;13.18;;;;;;;3.42;70.49;100538.13;1736722;81;21608;-58
2020/12/13 09:27:23;;;;;;;22.85;13.05;;;;;;;3.37;70.53;100531.84;1736027;80;21214;-58
2020/12/13 09:29:54;;;;;;;27.00;11.88;;;;;;;3.41;70.49;100529.47;1737320;80;21140;-58
2020/12/13 09:32:23;;;;;;;25.20;11.70;;;;;;;3.49;70.26;100524.73;1760478;80;21168;-58
2020/12/13 09:34:51;;;;;;;31.37;14.90;;;;;;;3.56;70.06;100524.45;1760333;80;21607;-59
2020/12/13 09:37:20;;;;;;;23.20;12.85;;;;;;;3.56;69.97;100526.59;1704107;83;21392;-59
2020/12/13 09:39:48;;;;;;;30.30;18.45;;;;;;;3.52;70.12;100523.30;1703322;82;21463;-59
2020/12/13 09:42:16;;;;;;;20.30;14.00;;;;;;;3.48;70.27;100524.81;1745601;81;21835;-58
2020/12/13 09:44:49;;;;;;;30.45;15.30;;;;;;;3.46;70.33;100526.22;1692128;82;21161;-59
2020/12/13 09:47:13;;;;;;;25.50;15.85;;;;;;;3.46;70.36;100523.61;1744271;80;21399;-58
2020/12/13 09:49:41;;;;;;;27.35;15.38;;;;;;;3.45;70.34;100524.98;1697301;82;21282;-58
2020/12/13 09:52:08;;;;;;;27.85;14.38;;;;;;;3.40;70.42;100519.16;1740276;81;21787;-58
2020/12/13 09:54:36;;;;;;;29.57;17.40;;;;;;;3.34;70.51;100515.08;1743169;81;21216;-61
2020/12/13 09:57:03;;;;;;;27.87;13.80;;;;;;;3.36;70.46;100511.94;1743219;80;21597;-59
2020/12/13 09:59:31;;;;;;;24.80;12.50;;;;;;;3.42;70.29;100510.35;1746617;81;21218;-59
2020/12/13 10:01:59;;;;;;;20.70;12.78;;;;;;;3.49;70.18;100506.53;1690172;84;21506;-59
2020/12/13 10:04:28;;;;;;;25.35;14.63;;;;;;;3.56;70.17;100504.94;1685697;84;21634;-59
2020/12/13 10:09:32;;;;;;;37.77;20.10;;;;;;;3.58;70.15;100495.29;1791266;77;28472;-58
2020/12/13 10:11:59;;;;;;;27.70;15.35;;;;;;;3.68;69.81;100497.82;1779525;79;21460;-57
2020/12/13 10:14:28;;;;;;;24.52;14.40;;;;;;;3.85;69.33;100487.43;1779648;79;22124;-58
2020/12/13 10:16:56;;;;;;;25.97;15.35;;;;;;;3.77;69.30;100492.64;1765944;79;21887;-59
2020/12/13 10:19:26;;;;;;;26.93;15.30;;;;;;;3.68;69.48;100493.91;1714270;81;21186;-59
2020/12/13 10:21:54;;;;;;;25.40;13.28;;;;;;;3.59;69.67;100490.48;1714425;82;21860;-59
2020/12/13 10:24:21;;;;;;;25.62;13.40;;;;;;;3.58;69.69;100493.55;1713240;81;21715;-59
2020/12/13 10:26:49;;;;;;;21.35;11.75;;;;;;;3.67;69.64;100492.25;1737326;81;21357;-58
2020/12/13 10:29:17;;;;;;;29.42;16.15;;;;;;;3.74;69.49;100489.72;1739758;80;21531;-59
2020/12/13 10:31:47;;;;;;;27.32;14.45;;;;;;;3.78;69.39;100488.63;1695118;81;21231;-59
2020/12/13 10:34:16;;;;;;;23.95;13.55;;;;;;;3.78;69.46;100488.63;1697443;82;21259;-58
2020/12/13 10:36:48;;;;;;;25.10;13.60;;;;;;;3.78;69.42;100499.52;1695204;82;21233;-59
2020/12/13 10:39:22;;;;;;;21.48;12.58;;;;;;;3.72;69.51;100497.60;1696763;82;22749;-59
2020/12/13 10:41:52;;;;;;;29.85;14.40;;;;;;;3.70;69.50;100497.31;1695668;82;21577;-58
2020/12/13 10:44:20;;;;;;;23.60;12.93;;;;;;;3.65;69.56;100495.39;1696870;82;21453;-58
2020/12/13 10:46:49;;;;;;;22.48;13.25;;;;;;;3.54;69.62;100482.42;1696352;82;21573;-58
2020/12/13 10:49:18;;;;;;;22.13;11.15;;;;;;;3.46;69.81;100488.93;1695616;82;21628;-58
2020/12/13 10:51:49;;;;;;;17.57;10.08;;;;;;;3.44;69.89;100492.07;1696075;82;21160;-59
2020/12/13 10:54:19;;;;;;;18.30;10.15;;;;;;;3.57;69.79;100488.42;1695108;82;21164;-58
2020/12/13 10:56:48;;;;;;;21.23;10.90;;;;;;;3.64;69.57;100484.59;1695899;82;21263;-58
2020/12/13 10:59:15;;;;;;;18.50;10.63;;;;;;;3.64;69.54;100487.19;1667924;85;21242;-58
2020/12/13 11:01:48;;;;;;;21.77;11.93;;;;;;;3.62;69.69;100493.77;1727754;81;21236;-58
2020/12/13 11:04:18;;;;;;;24.12;13.28;;;;;;;3.63;69.78;100490.70;1725364;81;21237;-58
2020/12/13 11:06:47;;;;;;;19.32;12.25;;;;;;;3.62;69.79;100485.97;1727233;81;21244;-58
2020/12/13 11:09:16;;;;;;;19.57;11.73;;;;;;;3.61;69.79;100488.17;1710679;81;21586;-58
2020/12/13 11:11:43;;;;;;;21.62;12.75;;;;;;;3.54;69.85;100490.70;1739467;80;21241;-60
2020/12/13 11:14:12;;;;;;;17.92;10.50;;;;;;;3.47;69.89;100482.35;1742754;80;21231;-59
2020/12/13 11:16:40;;;;;;;21.23;9.30;;;;;;;3.42;70.04;100491.31;1701525;83;21400;-59
2020/12/13 11:19:09;;;;;;;14.43;7.47;;;;;;;3.44;70.14;100488.17;1735782;80;21863;-59
2020/12/13 11:21:45;;;;;;;16.73;9.15;;;;;;;3.52;69.90;100484.27;1738683;80;21142;-59
2020/12/13 11:24:12;;;;;;;16.73;9.40;;;;;;;3.59;69.79;100485.28;1742207;80;21130;-59
2020/12/13 11:26:42;;;;;;;15.10;9.40;;;;;;;3.61;69.79;100486.04;1712639;81;21158;-58
2020/12/13 11:29:09;;;;;;;20.20;11.25;;;;;;;3.62;69.93;100489.03;1712503;81;21609;-59
2020/12/13 11:31:37;;;;;;;17.90;9.18;;;;;;;3.63;70.00;100492.00;1736254;80;21224;-59
2020/12/13 11:34:05;;;;;;;14.98;9.08;;;;;;;3.61;70.02;100488.17;1740193;80;21208;-59
2020/12/13 11:36:33;;;;;;;16.85;9.65;;;;;;;3.62;70.05;100485.13;1742415;80;21112;-59
2020/12/13 11:39:01;;;;;;;17.73;10.23;;;;;;;3.64;70.04;100485.42;1741840;80;21243;-59
2020/12/13 11:41:30;;;;;;;14.80;8.50;;;;;;;3.64;70.00;100487.19;1708105;82;21383;-59
2020/12/13 11:43:57;;;;;;;13.95;7.05;;;;;;;3.61;69.94;100489.47;1737221;80;21225;-59
2020/12/13 11:46:25;;;;;;;13.10;7.25;;;;;;;3.62;69.87;100484.66;1741748;80;21200;-59